createdAt,value
2023-02-27T00:00:44.258Z,158492.69
2023-02-27T00:03:48.373Z,158474.47
2023-02-27T00:06:52.462Z,158453.66
2023-02-27T00:09:56.856Z,158449.78
2023-02-27T00:13:01.016Z,158461.47
2023-02-27T00:16:05.771Z,158448.47
2023-02-27T00:19:09.522Z,158445.88
2023-02-27T00:22:13.576Z,158464.09
2023-02-27T00:25:18.227Z,158466.69
2023-02-27T00:28:22.715Z,158465.38
2023-02-27T00:31:27.042Z,158445.88
2023-02-27T00:34:31.482Z,158432.84
2023-02-27T00:37:35.671Z,158432.84
2023-02-27T00:40:40.234Z,158432.84
2023-02-27T00:43:45.172Z,158418.59
2023-02-27T00:46:49.252Z,158421.16
2023-02-27T00:49:53.261Z,158418.59
2023-02-27T00:52:57.720Z,158413.38
2023-02-27T00:56:01.928Z,158395.16
2023-02-27T00:59:05.899Z,158399.03
2023-02-27T01:02:10.208Z,158391.25
2023-02-27T01:05:14.974Z,158399.03
2023-02-27T01:08:20.176Z,158379.56
2023-02-27T01:11:24.999Z,158379.56
2023-02-27T01:14:29.595Z,158384.78
2023-02-27T01:17:33.724Z,158374.34
2023-02-27T01:20:37.753Z,158361.34
2023-02-27T01:23:41.866Z,158370.44
2023-02-27T01:26:47.555Z,158370.44
2023-02-27T01:29:51.624Z,158380.88
2023-02-27T01:32:55.729Z,158387.34
2023-02-27T01:35:59.404Z,158391.25
2023-02-27T01:39:03.750Z,158408.16
2023-02-27T01:42:20.234Z,158425.06
2023-02-27T01:45:30.702Z,158423.75
2023-02-27T01:48:38.752Z,158425.06
2023-02-27T01:51:54.797Z,158445.88
2023-02-27T01:54:58.980Z,158469.25
2023-02-27T01:58:05.817Z,158495.28
2023-02-27T02:01:10.286Z,158529.16
2023-02-27T02:04:27.774Z,158536.97
2023-02-27T02:07:33.116Z,158574.69
2023-02-27T02:10:39.492Z,158583.75
2023-02-27T02:13:44.028Z,158586.38
2023-02-27T02:17:13.016Z,158572.06
2023-02-27T02:20:35.177Z,158583.75
2023-02-27T02:24:11.353Z,158587.72
2023-02-27T02:27:43.803Z,158596.78
2023-02-27T02:31:23.253Z,158603.31
2023-02-27T02:34:49.395Z,158607.22
2023-02-27T02:38:23.897Z,158615.00
2023-02-27T02:41:40.500Z,158628.03
2023-02-27T02:44:47.403Z,158651.44
2023-02-27T02:48:10.558Z,158657.97
2023-02-27T02:51:34.707Z,158667.03
2023-02-27T02:54:43.488Z,158680.06
2023-02-27T02:58:02.438Z,158659.22
2023-02-27T03:01:20.327Z,158693.03
2023-02-27T03:04:31.430Z,158687.84
2023-02-27T03:08:02.859Z,158695.63
2023-02-27T03:11:07.174Z,158691.72
2023-02-27T03:14:20.598Z,158683.97
2023-02-27T03:17:33.456Z,158680.06
2023-02-27T03:20:42.829Z,158677.47
2023-02-27T03:23:48.650Z,158677.47
2023-02-27T03:26:57.158Z,158676.16
2023-02-27T03:30:13.946Z,158678.75
2023-02-27T03:33:24.095Z,158672.25
2023-02-27T03:37:00.765Z,158667.03
2023-02-27T03:40:15.768Z,158674.84
2023-02-27T03:43:32.927Z,158674.84
2023-02-27T03:46:37.270Z,158681.38
2023-02-27T03:49:41.066Z,158677.47
2023-02-27T03:52:45.989Z,158672.25
2023-02-27T03:55:52.182Z,158668.34
2023-02-27T03:58:56.314Z,158673.56
2023-02-27T04:02:02.716Z,158680.06
2023-02-27T04:05:07.132Z,158677.47
2023-02-27T04:08:33.236Z,158674.84
2023-02-27T04:11:46.167Z,158689.16
2023-02-27T04:15:03.856Z,158687.84
2023-02-27T04:18:18.748Z,158709.94
2023-02-27T04:21:44.324Z,158708.63
2023-02-27T04:25:04.797Z,158712.53
2023-02-27T04:28:17.513Z,158739.88
2023-02-27T04:31:32.088Z,158742.47
2023-02-27T04:34:42.320Z,158746.38
2023-02-27T04:37:54.562Z,158745.06
2023-02-27T04:41:07.509Z,158760.72
2023-02-27T04:44:14.688Z,158768.53
2023-02-27T04:47:20.872Z,158768.53
2023-02-27T04:50:30.784Z,158776.31
2023-02-27T04:53:42.858Z,158778.91
2023-02-27T04:56:56.840Z,158763.31
2023-02-27T05:00:32.196Z,158771.13
2023-02-27T05:03:49.101Z,158789.34
2023-02-27T05:07:02.079Z,158821.91
2023-02-27T05:10:32.347Z,158807.53
2023-02-27T05:14:01.762Z,158775.00
2023-02-27T05:17:11.496Z,158769.78
2023-02-27T05:20:17.226Z,158762.00
2023-02-27T05:23:30.411Z,158741.16
2023-02-27T05:27:17.622Z,158738.56
2023-02-27T05:30:37.964Z,158720.34
2023-02-27T05:33:51.644Z,158722.97
2023-02-27T05:37:03.293Z,158672.25
2023-02-27T05:40:10.796Z,158673.56
2023-02-27T05:43:26.684Z,158638.41
2023-02-27T05:46:35.971Z,158652.75
2023-02-27T05:50:03.316Z,158638.41
2023-02-27T05:53:10.781Z,158631.94
2023-02-27T05:56:18.110Z,158631.94
2023-02-27T05:59:34.131Z,158637.16
2023-02-27T06:02:38.895Z,158631.94
2023-02-27T06:05:43.675Z,158642.31
2023-02-27T06:08:48.188Z,158651.44
2023-02-27T06:11:52.141Z,158646.22
2023-02-27T06:14:56.093Z,158654.00
2023-02-27T06:18:00.263Z,158646.22
2023-02-27T06:21:04.986Z,158646.22
2023-02-27T06:24:09.436Z,158648.84
2023-02-27T06:27:13.892Z,158657.97
2023-02-27T06:30:18.350Z,158667.03
2023-02-27T06:33:22.150Z,158672.25
2023-02-27T06:36:26.625Z,158663.13
2023-02-27T06:39:31.180Z,158682.69
2023-02-27T06:42:35.370Z,158690.50
2023-02-27T06:45:39.570Z,158704.72
2023-02-27T06:48:43.507Z,158742.47
2023-02-27T06:51:47.756Z,158752.88
2023-02-27T06:54:51.755Z,158765.88
2023-02-27T06:57:55.756Z,158773.69
2023-02-27T07:01:00.883Z,158785.44
2023-02-27T07:04:05.128Z,158793.25
2023-02-27T07:07:32.361Z,158802.38
2023-02-27T07:10:34.457Z,158804.97
2023-02-27T07:13:38.518Z,158814.09
2023-02-27T07:16:42.867Z,158827.13
2023-02-27T07:19:46.623Z,158842.72
2023-02-27T07:22:50.930Z,158853.13
2023-02-27T07:25:54.789Z,158860.94
2023-02-27T07:28:58.940Z,158859.66
2023-02-27T07:32:03.363Z,158909.13
2023-02-27T07:35:08.549Z,158911.72
2023-02-27T07:38:12.818Z,158926.06
2023-02-27T07:41:29.940Z,158963.75
2023-02-27T07:44:34.009Z,158995.03
2023-02-27T07:47:38.231Z,159040.63
2023-02-27T07:50:42.257Z,159069.28
2023-02-27T07:53:46.832Z,159117.41
2023-02-27T07:56:50.993Z,159166.94
2023-02-27T07:59:55.409Z,159198.19
2023-02-27T08:03:00.416Z,159222.97
2023-02-27T08:06:04.917Z,159225.56
2023-02-27T08:09:10.754Z,159269.84
2023-02-27T08:12:15.132Z,159312.84
2023-02-27T08:15:19.583Z,159371.50
2023-02-27T08:18:23.793Z,159441.88
2023-02-27T08:21:28.727Z,159522.66
2023-02-27T08:24:32.731Z,159557.91
2023-02-27T08:27:38.284Z,159516.16
2023-02-27T08:30:42.416Z,159461.41
2023-02-27T08:33:46.456Z,159443.13
2023-02-27T08:36:50.402Z,159421.03
2023-02-27T08:39:54.639Z,159402.75
2023-02-27T08:42:59.008Z,159411.91
2023-02-27T08:46:03.227Z,159409.31
2023-02-27T08:49:07.464Z,159358.50
2023-02-27T08:52:11.469Z,159334.97
2023-02-27T08:55:15.863Z,159354.59
2023-02-27T08:58:20.200Z,159353.25
2023-02-27T09:01:28.514Z,159349.34
2023-02-27T09:04:32.856Z,159362.41
2023-02-27T09:07:36.992Z,159393.63
2023-02-27T09:10:41.783Z,159391.03
2023-02-27T09:13:45.753Z,159398.84
2023-02-27T09:16:50.072Z,159454.88
2023-02-27T09:19:57.019Z,159465.31
2023-02-27T09:23:02.202Z,159428.84
2023-02-27T09:26:06.831Z,159418.41
2023-02-27T09:29:10.838Z,159447.03
2023-02-27T09:32:15.080Z,159460.09
2023-02-27T09:35:22.935Z,159521.34
2023-02-27T09:38:27.421Z,159557.91
2023-02-27T09:41:50.419Z,159604.81
2023-02-27T09:45:02.641Z,159677.81
2023-02-27T09:48:32.324Z,159667.41
2023-02-27T09:51:36.474Z,159711.72
2023-02-27T09:54:41.842Z,159710.47
2023-02-27T09:57:54.893Z,159719.53
2023-02-27T10:01:25.207Z,159748.22
2023-02-27T10:04:48.198Z,159753.44
2023-02-27T10:08:23.220Z,159696.06
2023-02-27T10:11:43.607Z,159714.38
2023-02-27T10:14:56.673Z,159675.22
2023-02-27T10:18:26.092Z,159698.66
2023-02-27T10:21:41.180Z,159767.84
2023-02-27T10:24:51.290Z,159758.69
2023-02-27T10:28:00.154Z,159730.03
2023-02-27T10:31:15.789Z,159740.38
2023-02-27T10:34:22.568Z,159753.44
2023-02-27T10:37:27.048Z,159739.13
2023-02-27T10:40:31.227Z,159722.19
2023-02-27T10:43:35.349Z,159775.66
2023-02-27T10:46:40.740Z,159758.69
2023-02-27T10:49:45.169Z,159727.44
2023-02-27T10:53:02.461Z,159716.97
2023-02-27T10:56:14.242Z,159719.53
2023-02-27T10:59:25.458Z,159715.63
2023-02-27T11:02:53.344Z,159736.47
2023-02-27T11:06:22.594Z,159685.66
2023-02-27T11:09:34.103Z,159683.00
2023-02-27T11:12:39.563Z,159664.81
2023-02-27T11:15:43.693Z,159716.97
2023-02-27T11:18:50.127Z,159740.38
2023-02-27T11:22:23.587Z,159758.69
2023-02-27T11:25:27.791Z,159788.69
2023-02-27T11:28:31.746Z,159778.25
2023-02-27T11:31:37.794Z,159760.00
2023-02-27T11:34:52.827Z,159795.19
2023-02-27T11:38:00.657Z,159823.91
2023-02-27T11:41:06.672Z,159829.09
2023-02-27T11:44:17.979Z,159816.06
2023-02-27T11:47:33.433Z,159852.59
2023-02-27T11:51:11.150Z,159872.22
2023-02-27T11:54:32.321Z,159879.97
2023-02-27T11:57:41.047Z,159820.00
2023-02-27T12:00:56.647Z,159782.13
2023-02-27T12:04:16.638Z,159775.66
2023-02-27T12:07:33.139Z,159861.72
2023-02-27T12:10:52.061Z,159946.56
2023-02-27T12:14:04.127Z,159949.16
2023-02-27T12:17:44.976Z,159955.66
2023-02-27T12:21:01.320Z,159967.41
2023-02-27T12:24:25.793Z,159942.63
2023-02-27T12:28:00.926Z,159930.84
2023-02-27T12:31:35.649Z,159895.66
2023-02-27T12:34:48.263Z,159873.44
2023-02-27T12:37:53.094Z,159855.22
2023-02-27T12:41:06.365Z,159816.06
2023-02-27T12:44:24.259Z,159902.16
2023-02-27T12:47:51.679Z,159925.66
2023-02-27T12:51:21.681Z,159930.84
2023-02-27T12:54:54.185Z,159863.06
2023-02-27T12:58:15.040Z,159889.09
2023-02-27T13:01:37.413Z,159938.66
2023-02-27T13:05:36.136Z,159893.00
2023-02-27T13:09:09.643Z,159883.91
2023-02-27T13:12:32.701Z,159805.66
2023-02-27T13:16:00.724Z,159743.03
2023-02-27T13:19:17.346Z,159726.09
2023-02-27T13:22:47.868Z,159726.09
2023-02-27T13:25:53.896Z,159788.69
2023-02-27T13:29:00.782Z,159839.50
2023-02-27T13:32:12.775Z,159801.75
2023-02-27T13:35:41.748Z,159821.31
2023-02-27T13:38:48.579Z,159820.00
2023-02-27T13:41:52.766Z,159850.00
2023-02-27T13:45:04.664Z,159852.59
2023-02-27T13:48:33.558Z,159850.00
2023-02-27T13:51:46.774Z,159874.75
2023-02-27T13:54:51.892Z,159844.75
2023-02-27T13:57:59.593Z,159805.66
2023-02-27T14:01:05.467Z,159806.94
2023-02-27T14:04:18.261Z,159805.66
2023-02-27T14:07:25.123Z,159803.00
2023-02-27T14:10:31.060Z,159746.94
2023-02-27T14:13:50.117Z,159739.13
2023-02-27T14:16:55.925Z,159753.44
2023-02-27T14:20:00.258Z,159812.16
2023-02-27T14:23:22.702Z,159843.44
2023-02-27T14:26:28.342Z,159842.16
2023-02-27T14:29:35.053Z,159886.50
2023-02-27T14:32:39.247Z,159864.34
2023-02-27T14:35:46.539Z,159786.03
2023-02-27T14:38:53.066Z,159766.50
2023-02-27T14:42:35.933Z,159763.91
2023-02-27T14:45:40.275Z,159628.28
2023-02-27T14:48:45.263Z,159537.03
2023-02-27T14:51:50.471Z,159447.03
2023-02-27T14:55:27.864Z,159346.75
2023-02-27T14:58:31.855Z,159273.78
2023-02-27T15:01:36.614Z,159241.19
2023-02-27T15:04:40.488Z,159284.22
2023-02-27T15:07:54.072Z,159298.47
2023-02-27T15:10:59.619Z,159340.22
2023-02-27T15:14:06.497Z,159383.22
2023-02-27T15:17:25.783Z,159398.84
2023-02-27T15:20:32.905Z,159410.59
2023-02-27T15:23:37.018Z,159430.13
2023-02-27T15:26:42.479Z,159440.53
2023-02-27T15:29:58.801Z,159471.81
2023-02-27T15:33:02.973Z,159505.69
2023-02-27T15:36:07.855Z,159526.56
2023-02-27T15:39:11.637Z,159526.56
2023-02-27T15:42:15.913Z,159524.00
2023-02-27T15:45:22.418Z,159516.16
2023-02-27T15:48:26.620Z,159521.34
2023-02-27T15:51:30.564Z,159526.56
2023-02-27T15:54:35.784Z,159531.81
2023-02-27T15:57:42.086Z,159505.69
2023-02-27T16:00:47.748Z,159525.25
2023-02-27T16:03:57.896Z,159531.81
2023-02-27T16:07:05.912Z,159527.91
2023-02-27T16:10:22.625Z,159516.16
2023-02-27T16:13:41.879Z,159492.69
2023-02-27T16:16:54.888Z,159469.25
2023-02-27T16:20:02.246Z,159461.41
2023-02-27T16:23:28.405Z,159424.94
2023-02-27T16:26:36.782Z,159409.31
2023-02-27T16:29:44.891Z,159394.94
2023-02-27T16:32:55.760Z,159364.94
2023-02-27T16:36:18.662Z,159332.41
2023-02-27T16:39:23.486Z,159325.91
2023-02-27T16:42:27.628Z,159327.16
2023-02-27T16:45:31.985Z,159362.41
2023-02-27T16:48:36.554Z,159362.41
2023-02-27T16:51:40.629Z,159328.50
2023-02-27T16:54:44.696Z,159361.09
2023-02-27T16:57:49.228Z,159349.34
2023-02-27T17:00:53.481Z,159344.13
2023-02-27T17:03:57.485Z,159338.94
2023-02-27T17:07:03.656Z,159337.63
2023-02-27T17:10:11.381Z,159312.84
2023-02-27T17:13:15.684Z,159314.16
2023-02-27T17:16:19.853Z,159323.25
2023-02-27T17:19:24.329Z,159297.22
2023-02-27T17:22:28.409Z,159302.41
2023-02-27T17:25:32.252Z,159289.41
2023-02-27T17:28:35.980Z,159276.41
2023-02-27T17:31:41.650Z,159286.75
2023-02-27T17:34:46.098Z,159286.75
2023-02-27T17:37:50.339Z,159310.22
2023-02-27T17:40:54.437Z,159322.00
2023-02-27T17:43:59.609Z,159281.59
2023-02-27T17:47:03.555Z,159289.41
2023-02-27T17:50:08.183Z,159262.03
2023-02-27T17:53:12.855Z,159251.63
2023-02-27T17:56:17.008Z,159255.53
2023-02-27T17:59:21.060Z,159254.22
2023-02-27T18:02:25.031Z,159254.22
2023-02-27T18:05:29.218Z,159251.63
2023-02-27T18:08:34.110Z,159206.00
2023-02-27T18:11:38.561Z,159191.72
2023-02-27T18:14:42.895Z,159173.50
2023-02-27T18:17:46.802Z,159182.56
2023-02-27T18:21:01.933Z,159164.34
2023-02-27T18:24:06.313Z,159163.03
2023-02-27T18:27:10.812Z,159161.72
2023-02-27T18:30:16.046Z,159114.84
2023-02-27T18:33:20.327Z,159138.28
2023-02-27T18:36:24.802Z,159117.41
2023-02-27T18:39:29.219Z,159134.38
2023-02-27T18:42:34.898Z,159125.25
2023-02-27T18:45:39.562Z,159118.75
2023-02-27T18:48:45.042Z,159088.75
2023-02-27T18:51:49.530Z,159083.59
2023-02-27T18:54:53.688Z,159083.59
2023-02-27T18:57:58.005Z,159136.94
2023-02-27T19:01:04.075Z,159164.34
2023-02-27T19:04:09.412Z,159169.56
2023-02-27T19:07:14.807Z,159157.81
2023-02-27T19:10:19.084Z,159161.72
2023-02-27T19:13:24.621Z,159174.75
2023-02-27T19:16:29.203Z,159166.94
2023-02-27T19:19:33.480Z,159130.47
2023-02-27T19:22:37.411Z,159123.97
2023-02-27T19:25:42.018Z,159105.72
2023-02-27T19:28:46.313Z,159074.50
2023-02-27T19:31:50.464Z,159062.75
2023-02-27T19:34:54.174Z,159062.75
2023-02-27T19:37:59.137Z,159036.72
2023-02-27T19:41:06.036Z,159026.28
2023-02-27T19:44:10.383Z,159004.16
2023-02-27T19:47:14.745Z,158991.13
2023-02-27T19:50:19.097Z,158982.00
2023-02-27T19:53:23.148Z,158980.69
2023-02-27T19:56:28.494Z,158987.22
2023-02-27T19:59:33.023Z,158974.19
2023-02-27T20:02:40.298Z,158982.00
2023-02-27T20:05:45.380Z,158966.38
2023-02-27T20:08:50.871Z,158979.41
2023-02-27T20:11:59.044Z,158992.41
2023-02-27T20:15:08.752Z,158987.22
2023-02-27T20:18:13.115Z,158992.41
2023-02-27T20:21:24.390Z,159005.44
2023-02-27T20:24:28.882Z,159013.25
2023-02-27T20:27:34.463Z,159010.66
2023-02-27T20:30:39.376Z,159006.75
2023-02-27T20:33:43.280Z,158998.94
2023-02-27T20:36:52.350Z,158989.81
2023-02-27T20:39:56.284Z,159035.41
2023-02-27T20:43:00.764Z,159045.84
2023-02-27T20:46:19.562Z,159060.16
2023-02-27T20:49:23.431Z,159054.94
2023-02-27T20:52:27.793Z,159056.25
2023-02-27T20:55:32.230Z,159060.16
2023-02-27T20:58:37.164Z,159053.66
2023-02-27T21:01:42.724Z,159049.75
2023-02-27T21:04:47.351Z,159025.00
2023-02-27T21:07:51.608Z,159018.47
2023-02-27T21:10:55.968Z,159023.69
2023-02-27T21:14:06.137Z,159018.47
2023-02-27T21:17:11.177Z,159019.78
2023-02-27T21:20:15.139Z,159015.88
2023-02-27T21:23:19.461Z,159018.47
2023-02-27T21:26:25.294Z,159026.28
2023-02-27T21:29:29.378Z,159044.53
2023-02-27T21:32:33.658Z,159064.06
2023-02-27T21:35:38.216Z,159066.66
2023-02-27T21:38:42.772Z,159077.09
2023-02-27T21:41:47.436Z,159056.25
2023-02-27T21:44:51.205Z,159060.16
2023-02-27T21:47:55.365Z,159056.25
2023-02-27T21:51:00.509Z,159061.47
2023-02-27T21:54:05.296Z,159051.03
2023-02-27T21:57:09.902Z,159065.38
2023-02-27T22:00:14.281Z,159066.66
2023-02-27T22:03:18.332Z,159040.63
2023-02-27T22:06:24.925Z,159047.13
2023-02-27T22:09:29.065Z,159057.56
2023-02-27T22:12:32.926Z,159060.16
2023-02-27T22:15:36.687Z,159075.78
2023-02-27T22:18:41.131Z,159079.69
2023-02-27T22:21:46.048Z,159073.19
2023-02-27T22:24:50.176Z,159086.22
2023-02-27T22:27:54.303Z,159079.69
2023-02-27T22:31:07.700Z,159086.22
2023-02-27T22:34:18.037Z,159071.88
2023-02-27T22:37:23.360Z,159062.75
2023-02-27T22:40:29.533Z,159067.97
2023-02-27T22:43:34.781Z,159079.69
2023-02-27T22:46:41.788Z,159081.00
2023-02-27T22:49:45.959Z,159036.72
2023-02-27T22:52:50.199Z,159036.72
2023-02-27T22:55:56.129Z,159061.47
2023-02-27T22:59:00.306Z,159052.34
2023-02-27T23:02:06.149Z,159052.34
2023-02-27T23:05:10.956Z,159062.75
2023-02-27T23:08:17.024Z,159060.16
2023-02-27T23:11:21.931Z,159062.75
2023-02-27T23:14:26.413Z,159062.75
2023-02-27T23:17:33.012Z,159066.66
2023-02-27T23:20:38.430Z,159053.66
2023-02-27T23:23:43.249Z,159056.25
2023-02-27T23:26:49.586Z,159067.97
2023-02-27T23:29:53.882Z,159060.16
2023-02-27T23:32:58.472Z,159031.50
2023-02-27T23:36:03.434Z,159027.59
2023-02-27T23:39:08.182Z,159034.09
2023-02-27T23:42:30.886Z,159036.72
2023-02-27T23:45:35.434Z,159041.88
2023-02-27T23:48:40.351Z,159073.19
2023-02-27T23:51:44.721Z,159061.47
2023-02-27T23:54:48.543Z,159044.53
2023-02-27T23:57:54.360Z,159040.63
